createdAt,value
2019-03-15T00:00:45.168Z,71.40
2019-03-15T00:03:16.409Z,71.50
2019-03-15T00:05:55.646Z,71.50
2019-03-15T00:08:24.994Z,71.40
2019-03-15T00:10:54.749Z,71.50
2019-03-15T00:13:24.119Z,71.40
2019-03-15T00:15:53.471Z,71.60
2019-03-15T00:18:22.962Z,71.50
2019-03-15T00:20:57.326Z,71.60
2019-03-15T00:23:27.281Z,71.60
2019-03-15T00:25:56.169Z,71.50
2019-03-15T00:28:25.168Z,71.30
2019-03-15T00:30:55.094Z,71.20
2019-03-15T00:33:25.932Z,71.20
2019-03-15T00:35:55.641Z,71.20
2019-03-15T00:38:27.662Z,71.20
2019-03-15T00:40:58.503Z,71.20
2019-03-15T00:43:32.067Z,71.20
2019-03-15T00:46:01.830Z,71.10
2019-03-15T00:48:35.325Z,71.00
2019-03-15T00:51:07.100Z,71.00
2019-03-15T01:05:02.894Z,71.00
2019-03-15T01:07:47.066Z,70.90
2019-03-15T01:10:23.253Z,70.90
2019-03-15T01:25:11.239Z,71.20
2019-03-15T01:53:49.007Z,71.00
2019-03-15T01:56:45.125Z,71.20
2019-03-15T02:00:15.285Z,71.20
2019-03-15T02:07:11.538Z,71.10
2019-03-15T02:10:30.699Z,71.20
2019-03-15T02:13:17.090Z,70.90
2019-03-15T02:16:31.120Z,71.00
2019-03-15T02:19:10.402Z,70.90
2019-03-15T02:21:47.152Z,71.00
2019-03-15T02:24:45.203Z,71.20
2019-03-15T02:27:28.536Z,71.00
2019-03-15T02:30:17.367Z,71.00
2019-03-15T02:33:16.085Z,70.90
2019-03-15T02:36:00.519Z,70.80
2019-03-15T02:38:54.039Z,70.80
2019-03-15T02:41:48.209Z,70.80
2019-03-15T02:44:42.271Z,71.40
2019-03-15T02:47:32.769Z,70.90
2019-03-15T02:50:03.697Z,71.10
2019-03-15T02:52:56.660Z,71.10
2019-03-15T02:59:15.686Z,71.40
2019-03-15T03:02:00.669Z,71.50
2019-03-15T03:07:44.652Z,71.60
2019-03-15T03:10:40.634Z,71.70
2019-03-15T03:13:41.626Z,71.80
2019-03-15T03:16:42.599Z,71.90
2019-03-15T03:19:33.175Z,71.90
2019-03-15T03:22:07.054Z,72.50
2019-03-15T03:24:58.701Z,72.00
2019-03-15T03:27:57.565Z,72.00
2019-03-15T03:30:53.141Z,72.10
2019-03-15T03:33:27.322Z,72.10
2019-03-15T03:36:24.991Z,72.00
2019-03-15T03:45:51.022Z,72.10
2019-03-15T03:48:33.883Z,72.00
2019-03-15T03:51:30.210Z,72.00
2019-03-15T03:54:21.863Z,72.00
2019-03-15T03:57:02.854Z,71.90
2019-03-15T04:06:54.524Z,72.20
2019-03-15T04:09:32.436Z,72.10
2019-03-15T04:12:04.248Z,72.10
2019-03-15T04:15:09.843Z,72.10
2019-03-15T04:18:35.563Z,72.00
2019-03-15T04:22:09.214Z,72.20
2019-03-15T04:25:40.536Z,72.30
2019-03-15T04:28:40.962Z,72.10
2019-03-15T04:31:14.069Z,72.00
2019-03-15T04:33:54.257Z,71.90
2019-03-15T04:36:29.385Z,71.90
2019-03-15T04:39:42.302Z,71.70
2019-03-15T04:42:27.521Z,71.70
2019-03-15T04:45:07.762Z,71.90
2019-03-15T04:50:59.755Z,71.80
2019-03-15T04:54:05.808Z,71.80
2019-03-15T05:00:31.848Z,71.80
2019-03-15T05:03:42.670Z,71.80
2019-03-15T05:13:13.659Z,71.60
2019-03-15T05:15:50.538Z,71.60
2019-03-15T05:18:26.872Z,71.60
2019-03-15T05:21:19.267Z,71.60
2019-03-15T05:24:14.840Z,71.60
2019-03-15T05:27:13.178Z,71.60
2019-03-15T05:30:35.296Z,71.50
2019-03-15T05:33:09.719Z,71.30
2019-03-15T05:35:41.270Z,71.30
2019-03-15T05:38:14.389Z,71.40
2019-03-15T05:56:37.597Z,71.50
2019-03-15T06:12:54.280Z,71.40
2019-03-15T06:16:20.862Z,71.40
2019-03-15T06:23:25.598Z,71.40
2019-03-15T06:30:21.983Z,72.00
2019-03-15T06:36:29.944Z,71.40
2019-03-15T07:23:39.231Z,68.20
2019-03-15T07:26:09.424Z,68.10
2019-03-15T07:28:40.704Z,68.40
2019-03-15T07:31:28.079Z,68.40
2019-03-15T07:33:58.478Z,68.40
2019-03-15T07:36:28.798Z,68.10
2019-03-15T07:39:12.622Z,68.00
2019-03-15T07:41:45.824Z,67.50
2019-03-15T07:44:21.216Z,67.40
2019-03-15T07:47:07.755Z,67.40
2019-03-15T07:49:40.646Z,67.30
2019-03-15T07:52:12.356Z,67.30
2019-03-15T07:54:44.554Z,67.50
2019-03-15T07:57:19.995Z,67.70
2019-03-15T07:59:50.145Z,67.80
2019-03-15T08:02:25.214Z,67.40
2019-03-15T08:04:56.800Z,66.90
2019-03-15T08:07:36.429Z,66.40
2019-03-15T08:09:58.791Z,66.00
2019-03-15T08:12:28.248Z,65.80
2019-03-15T08:14:58.538Z,65.80
2019-03-15T08:17:31.506Z,65.60
2019-03-15T08:20:12.544Z,65.50
2019-03-15T08:22:45.282Z,65.60
2019-03-15T08:25:17.076Z,65.90
2019-03-15T08:27:46.729Z,65.90
2019-03-15T08:30:17.117Z,65.80
2019-03-15T08:32:50.102Z,65.70
2019-03-15T08:35:24.199Z,65.40
2019-03-15T08:37:53.822Z,65.10
2019-03-15T08:40:25.887Z,65.00
2019-03-15T08:42:56.011Z,65.00
2019-03-15T08:45:25.334Z,65.30
2019-03-15T08:47:55.427Z,65.30
2019-03-15T08:50:28.596Z,65.30
2019-03-15T08:52:59.127Z,65.10
2019-03-15T08:55:28.737Z,65.00
2019-03-15T09:00:58.572Z,64.50
2019-03-15T09:03:34.134Z,64.30
2019-03-15T09:06:05.411Z,63.80
2019-03-15T09:08:37.392Z,63.70
2019-03-15T09:11:12.190Z,63.50
2019-03-15T09:13:42.015Z,63.20
2019-03-15T09:16:19.738Z,63.00
2019-03-15T09:18:55.604Z,63.00
2019-03-15T09:22:04.354Z,62.70
2019-03-15T09:24:40.991Z,62.60
2019-03-15T09:27:18.365Z,62.20
2019-03-15T09:29:52.526Z,61.80
2019-03-15T09:32:49.409Z,61.60
2019-03-15T09:35:21.822Z,61.60
2019-03-15T09:37:54.255Z,61.30
2019-03-15T09:40:45.557Z,60.90
2019-03-15T09:43:21.098Z,60.90
2019-03-15T09:45:57.569Z,60.90
2019-03-15T09:49:08.386Z,60.50
2019-03-15T09:51:40.054Z,60.50
2019-03-15T09:54:19.643Z,60.30
2019-03-15T09:57:08.702Z,59.80
2019-03-15T09:59:39.754Z,58.50
2019-03-15T10:02:29.695Z,58.40
2019-03-15T10:05:10.824Z,58.10
2019-03-15T10:07:43.055Z,58.30
2019-03-15T10:10:25.180Z,58.60
2019-03-15T10:13:05.876Z,58.60
2019-03-15T10:15:37.165Z,58.70
2019-03-15T10:18:09.541Z,58.90
2019-03-15T10:20:40.552Z,59.00
2019-03-15T10:23:11.626Z,59.00
2019-03-15T10:25:48.400Z,58.70
2019-03-15T10:28:15.779Z,58.40
2019-03-15T10:30:59.913Z,58.20
2019-03-15T10:33:33.600Z,57.80
2019-03-15T10:36:13.394Z,57.60
2019-03-15T10:39:01.440Z,57.50
2019-03-15T10:41:52.000Z,57.10
2019-03-15T10:44:39.762Z,57.00
2019-03-15T10:48:09.759Z,56.90
2019-03-15T10:51:49.502Z,56.90
2019-03-15T10:55:01.294Z,57.00
2019-03-15T10:57:53.100Z,56.90
2019-03-15T11:00:26.940Z,56.60
2019-03-15T11:02:56.685Z,56.20
2019-03-15T11:05:27.199Z,56.10
2019-03-15T11:08:24.324Z,56.00
2019-03-15T11:11:17.933Z,56.10
2019-03-15T11:17:09.901Z,55.60
2019-03-15T11:23:45.154Z,55.40
2019-03-15T11:30:12.062Z,55.30
2019-03-15T11:32:45.661Z,55.30
2019-03-15T11:35:20.948Z,55.20
2019-03-15T11:37:59.440Z,55.20
2019-03-15T11:40:29.907Z,55.30
2019-03-15T11:43:04.119Z,55.10
2019-03-15T11:45:38.535Z,55.00
2019-03-15T11:48:16.559Z,54.90
2019-03-15T11:50:48.176Z,54.90
2019-03-15T11:53:50.758Z,54.90
2019-03-15T11:56:50.717Z,54.70
2019-03-15T11:59:22.887Z,54.60
2019-03-15T12:02:04.030Z,54.80
2019-03-15T12:04:31.606Z,54.90
2019-03-15T12:07:06.696Z,55.00
2019-03-15T12:09:41.743Z,55.10
2019-03-15T12:12:17.493Z,55.40
2019-03-15T12:14:55.354Z,55.80
2019-03-15T12:17:30.997Z,56.10
2019-03-15T12:20:11.482Z,56.40
2019-03-15T12:22:43.214Z,56.80
2019-03-15T12:28:19.460Z,57.50
2019-03-15T12:30:57.539Z,57.80
2019-03-15T12:33:32.074Z,58.10
2019-03-15T12:36:07.538Z,58.20
2019-03-15T12:38:58.419Z,58.40
2019-03-15T12:41:45.622Z,58.50
2019-03-15T12:44:19.020Z,58.70
2019-03-15T12:47:14.083Z,59.60
2019-03-15T12:49:45.397Z,60.70
2019-03-15T12:53:20.656Z,61.90
2019-03-15T12:56:14.458Z,62.90
2019-03-15T12:58:46.289Z,63.80
2019-03-15T13:01:36.153Z,64.40
2019-03-15T13:04:10.309Z,64.80
2019-03-15T13:06:41.385Z,65.20
2019-03-15T13:09:15.119Z,65.40
2019-03-15T13:12:00.009Z,65.80
2019-03-15T13:14:33.938Z,66.60
2019-03-15T13:17:07.927Z,66.90
2019-03-15T13:19:39.116Z,67.00
2019-03-15T13:22:08.364Z,67.50
2019-03-15T13:24:41.096Z,68.00
2019-03-15T13:27:11.733Z,68.40
2019-03-15T13:29:42.495Z,68.70
2019-03-15T13:32:11.600Z,68.90
2019-03-15T13:34:43.028Z,69.00
2019-03-15T13:37:15.704Z,69.00
2019-03-15T13:40:23.302Z,69.00
2019-03-15T13:42:59.818Z,69.10
2019-03-15T13:45:32.824Z,69.10
2019-03-15T13:48:06.994Z,69.10
2019-03-15T13:51:25.378Z,69.10
2019-03-15T13:53:54.717Z,69.20
2019-03-15T13:56:26.891Z,69.20
2019-03-15T13:58:57.741Z,69.20
2019-03-15T14:01:29.872Z,69.20
2019-03-15T14:03:59.839Z,69.20
2019-03-15T14:06:33.901Z,69.60
2019-03-15T14:09:20.335Z,70.20
2019-03-15T14:12:00.107Z,70.60
2019-03-15T14:14:36.143Z,71.00
2019-03-15T14:17:07.098Z,70.90
2019-03-15T14:19:38.231Z,70.80
2019-03-15T14:22:13.462Z,70.60
2019-03-15T14:24:43.263Z,70.10
2019-03-15T14:27:13.357Z,69.70
2019-03-15T14:29:43.397Z,69.60
2019-03-15T14:32:14.921Z,69.40
2019-03-15T14:34:44.607Z,69.40
2019-03-15T14:37:16.096Z,69.30
2019-03-15T14:39:45.590Z,69.30
2019-03-15T14:42:14.948Z,69.60
2019-03-15T14:44:44.092Z,69.80
2019-03-15T14:47:13.263Z,69.90
2019-03-15T14:49:43.487Z,69.80
2019-03-15T14:52:15.029Z,70.00
2019-03-15T14:54:44.155Z,70.20
2019-03-15T14:57:25.183Z,70.50
2019-03-15T15:00:03.252Z,70.60
2019-03-15T15:02:44.413Z,70.90
2019-03-15T15:05:16.750Z,70.90
2019-03-15T15:07:49.791Z,70.80
2019-03-15T15:10:25.014Z,70.90
2019-03-15T15:12:55.436Z,70.80
2019-03-15T15:15:27.329Z,70.80
2019-03-15T15:18:04.392Z,71.00
2019-03-15T15:20:34.230Z,71.10
2019-03-15T15:23:10.046Z,71.00
2019-03-15T15:25:42.696Z,70.90
2019-03-15T15:28:32.032Z,70.80
2019-03-15T15:31:04.259Z,70.80
2019-03-15T15:33:35.445Z,70.90
2019-03-15T15:36:05.790Z,71.10
2019-03-15T15:38:37.699Z,71.00
2019-03-15T15:41:11.281Z,71.20
2019-03-15T15:43:40.421Z,71.40
2019-03-15T15:46:10.220Z,71.40
2019-03-15T15:48:40.855Z,71.80
2019-03-15T15:51:12.137Z,71.80
2019-03-15T15:53:42.313Z,72.00
2019-03-15T15:56:11.451Z,72.30
2019-03-15T15:58:41.841Z,72.60
2019-03-15T16:01:22.300Z,72.80
2019-03-15T16:03:52.436Z,72.90
2019-03-15T16:06:22.567Z,73.00
2019-03-15T16:08:53.316Z,73.10
2019-03-15T16:11:25.748Z,73.20
2019-03-15T16:13:56.338Z,73.30
2019-03-15T16:16:26.203Z,73.40
2019-03-15T16:18:59.228Z,73.50
2019-03-15T16:21:33.546Z,73.70
2019-03-15T16:24:04.254Z,73.90
2019-03-15T16:26:35.972Z,73.90
2019-03-15T16:29:05.238Z,74.00
2019-03-15T16:31:37.562Z,74.00
2019-03-15T16:34:11.345Z,74.10
2019-03-15T16:36:41.814Z,74.10
2019-03-15T16:39:11.110Z,73.90
2019-03-15T16:41:41.137Z,73.70
2019-03-15T16:47:35.887Z,73.60
2019-03-15T16:50:07.010Z,73.40
2019-03-15T16:52:36.771Z,72.90
2019-03-15T16:55:26.582Z,72.50
2019-03-15T16:57:57.206Z,72.50
2019-03-15T17:00:31.095Z,72.60
2019-03-15T17:03:00.382Z,72.60
2019-03-15T17:05:29.955Z,72.40
2019-03-15T17:08:00.224Z,72.00
2019-03-15T17:10:32.862Z,71.70
2019-03-15T17:13:03.387Z,71.50
2019-03-15T17:15:33.303Z,71.80
2019-03-15T17:18:06.073Z,71.20
2019-03-15T17:20:36.650Z,70.80
2019-03-15T17:23:05.805Z,70.90
2019-03-15T17:25:36.758Z,70.90
2019-03-15T17:28:10.414Z,70.80
2019-03-15T17:30:42.687Z,70.50
2019-03-15T17:33:13.004Z,70.40
2019-03-15T17:35:42.045Z,70.40
2019-03-15T17:38:48.385Z,70.40
2019-03-15T17:44:14.354Z,70.20
2019-03-15T17:46:51.116Z,70.00
2019-03-15T17:49:20.391Z,70.00
2019-03-15T17:51:54.753Z,70.00
2019-03-15T17:54:34.770Z,70.20
2019-03-15T18:00:34.393Z,70.60
2019-03-15T18:03:20.802Z,70.80
2019-03-15T18:05:57.566Z,71.00
2019-03-15T18:08:51.061Z,71.00
2019-03-15T18:11:32.625Z,71.20
2019-03-15T18:14:27.994Z,71.20
2019-03-15T18:17:15.233Z,71.40
2019-03-15T18:20:15.675Z,71.40
2019-03-15T18:22:53.653Z,71.60
2019-03-15T18:25:31.628Z,71.40
2019-03-15T18:28:17.494Z,71.40
2019-03-15T18:31:17.261Z,71.50
2019-03-15T18:33:50.106Z,71.80
2019-03-15T18:36:51.503Z,71.80
2019-03-15T18:39:33.816Z,71.80
2019-03-15T18:42:12.025Z,72.00
2019-03-15T18:45:06.655Z,72.10
2019-03-15T18:47:41.280Z,72.10
2019-03-15T18:50:23.418Z,71.80
2019-03-15T18:53:26.022Z,71.50
2019-03-15T18:55:55.335Z,71.50
2019-03-15T18:58:26.269Z,72.00
2019-03-15T19:01:15.049Z,71.30
2019-03-15T19:03:46.522Z,71.40
2019-03-15T19:06:27.981Z,71.20
2019-03-15T19:08:57.709Z,71.20
2019-03-15T19:11:40.397Z,71.10
2019-03-15T19:14:13.144Z,70.80
2019-03-15T19:16:44.831Z,70.50
2019-03-15T19:19:15.890Z,70.60
2019-03-15T19:21:52.257Z,70.70
2019-03-15T19:24:23.411Z,70.90
2019-03-15T19:26:55.032Z,70.60
2019-03-15T19:29:31.070Z,70.60
2019-03-15T19:32:10.866Z,70.90
2019-03-15T19:34:44.231Z,71.00
2019-03-15T19:37:19.610Z,71.00
2019-03-15T19:39:53.722Z,71.00
2019-03-15T19:42:46.270Z,71.20
2019-03-15T19:45:17.061Z,70.90
2019-03-15T19:47:54.080Z,70.50
2019-03-15T19:50:47.504Z,70.00
2019-03-15T19:53:26.010Z,70.00
2019-03-15T19:56:03.001Z,69.50
2019-03-15T19:58:54.151Z,69.10
2019-03-15T20:01:29.058Z,69.00
2019-03-15T20:04:03.970Z,69.00
2019-03-15T20:06:49.768Z,69.00
2019-03-15T20:09:26.920Z,68.60
2019-03-15T20:12:10.290Z,67.80
2019-03-15T20:14:53.324Z,67.20
2019-03-15T20:17:28.603Z,67.70
2019-03-15T20:20:04.037Z,68.00
2019-03-15T20:22:38.150Z,68.10
2019-03-15T20:25:23.678Z,67.80
2019-03-15T20:27:56.668Z,67.80
2019-03-15T20:30:32.318Z,68.00
2019-03-15T20:33:02.677Z,68.20
2019-03-15T20:35:47.199Z,67.80
2019-03-15T20:38:39.547Z,68.20
2019-03-15T20:41:15.303Z,68.60
2019-03-15T20:43:47.072Z,68.70
2019-03-15T20:46:20.378Z,68.60
2019-03-15T20:48:51.553Z,68.60
2019-03-15T20:51:32.249Z,68.70
2019-03-15T20:54:18.220Z,68.70
2019-03-15T20:56:55.107Z,68.90
2019-03-15T21:00:03.084Z,68.90
2019-03-15T21:06:33.754Z,68.80
2019-03-15T21:09:21.289Z,69.00
2019-03-15T21:12:15.468Z,69.10
2019-03-15T21:14:50.840Z,68.80
2019-03-15T21:17:26.244Z,69.00
2019-03-15T21:19:56.304Z,68.90
2019-03-15T21:22:31.646Z,69.00
2019-03-15T21:25:30.018Z,69.00
2019-03-15T21:28:20.182Z,69.10
2019-03-15T21:30:50.107Z,69.00
2019-03-15T21:33:20.506Z,68.50
2019-03-15T21:35:50.692Z,68.40
2019-03-15T21:38:22.206Z,68.30
2019-03-15T21:40:53.093Z,68.20
2019-03-15T21:43:22.245Z,68.10
2019-03-15T21:45:54.877Z,68.00
2019-03-15T21:48:24.132Z,67.60
2019-03-15T21:51:04.937Z,67.80
2019-03-15T21:53:36.876Z,68.00
2019-03-15T21:56:07.994Z,68.00
2019-03-15T21:58:36.996Z,68.00
2019-03-15T22:01:07.410Z,67.90
2019-03-15T22:03:36.501Z,67.90
2019-03-15T22:06:06.811Z,67.80
2019-03-15T22:08:36.017Z,67.70
2019-03-15T22:11:20.683Z,67.60
2019-03-15T22:13:41.389Z,67.70
2019-03-15T22:16:13.934Z,67.70
2019-03-15T22:18:42.913Z,67.70
2019-03-15T22:21:12.329Z,67.80
2019-03-15T22:23:41.310Z,67.80
2019-03-15T22:26:13.384Z,67.70
2019-03-15T22:28:42.576Z,67.80
2019-03-15T22:31:18.092Z,67.90
2019-03-15T22:33:47.957Z,68.10
2019-03-15T22:36:16.941Z,68.20
2019-03-15T22:38:45.976Z,68.40
2019-03-15T22:41:15.041Z,68.50
2019-03-15T22:43:43.944Z,68.70
2019-03-15T22:46:13.154Z,68.90
2019-03-15T22:48:42.192Z,69.10
2019-03-15T22:51:14.022Z,69.30
2019-03-15T22:53:43.401Z,69.40
2019-03-15T22:56:12.683Z,69.30
2019-03-15T22:58:42.624Z,69.20
2019-03-15T23:01:11.835Z,69.20
2019-03-15T23:03:42.113Z,69.10
2019-03-15T23:06:11.757Z,69.20
2019-03-15T23:08:40.959Z,68.90
2019-03-15T23:11:09.876Z,69.00
2019-03-15T23:13:39.047Z,69.20
2019-03-15T23:16:07.995Z,69.40
2019-03-15T23:18:38.146Z,69.50
2019-03-15T23:21:07.722Z,69.70
2019-03-15T23:23:36.658Z,69.90
2019-03-15T23:26:05.853Z,70.10
2019-03-15T23:28:35.140Z,70.20
2019-03-15T23:31:05.182Z,70.30
2019-03-15T23:33:34.386Z,70.10
2019-03-15T23:36:03.601Z,70.00
2019-03-15T23:38:32.533Z,69.60
2019-03-15T23:41:01.919Z,69.20
2019-03-15T23:43:31.882Z,68.90
2019-03-15T23:46:05.079Z,68.80
2019-03-15T23:48:35.308Z,68.80
2019-03-15T23:51:06.109Z,68.80
2019-03-15T23:53:36.891Z,68.80
2019-03-15T23:56:06.602Z,68.50
2019-03-15T23:58:35.607Z,68.50
